sensor_id;sensor_type;location;lat;lon;timestamp;P1;durP1;ratioP1;P2;durP2;ratioP2
39848;SDS011;25518;47.878;15.914;2024-03-23T00:54:21;3.40;;;1.40;;
39848;SDS011;25518;47.878;15.914;2024-03-23T00:57:13;3.55;;;1.40;;
39848;SDS011;25518;47.878;15.914;2024-03-23T01:00:05;2.97;;;1.65;;
39848;SDS011;25518;47.878;15.914;2024-03-23T01:02:57;3.65;;;1.60;;
39848;SDS011;25518;47.878;15.914;2024-03-23T01:05:48;2.85;;;1.30;;
39848;SDS011;25518;47.878;15.914;2024-03-23T01:08:40;3.17;;;1.50;;
39848;SDS011;25518;47.878;15.914;2024-03-23T01:11:32;2.45;;;1.40;;
39848;SDS011;25518;47.878;15.914;2024-03-23T01:14:24;3.60;;;1.27;;
39848;SDS011;25518;47.878;15.914;2024-03-23T01:17:15;3.03;;;1.55;;
39848;SDS011;25518;47.878;15.914;2024-03-23T01:20:07;2.58;;;1.30;;
39848;SDS011;25518;47.878;15.914;2024-03-23T01:22:59;2.33;;;1.50;;
39848;SDS011;25518;47.878;15.914;2024-03-23T01:25:52;2.72;;;1.10;;
39848;SDS011;25518;47.878;15.914;2024-03-23T01:28:44;3.42;;;1.38;;
39848;SDS011;25518;47.878;15.914;2024-03-23T01:31:36;2.90;;;1.23;;
39848;SDS011;25518;47.878;15.914;2024-03-23T01:34:27;4.85;;;1.63;;
39848;SDS011;25518;47.878;15.914;2024-03-23T01:37:19;3.80;;;2.00;;
39848;SDS011;25518;47.878;15.914;2024-03-23T01:40:11;4.03;;;2.30;;
39848;SDS011;25518;47.878;15.914;2024-03-23T01:43:04;4.13;;;1.70;;
39848;SDS011;25518;47.878;15.914;2024-03-23T01:45:56;3.00;;;1.42;;
39848;SDS011;25518;47.878;15.914;2024-03-23T01:48:48;3.58;;;1.50;;
39848;SDS011;25518;47.878;15.914;2024-03-23T01:51:41;2.90;;;1.65;;
39848;SDS011;25518;47.878;15.914;2024-03-23T01:54:32;3.95;;;2.15;;
39848;SDS011;25518;47.878;15.914;2024-03-23T01:57:25;3.88;;;1.85;;
39848;SDS011;25518;47.878;15.914;2024-03-23T02:00:16;5.47;;;2.30;;
39848;SDS011;25518;47.878;15.914;2024-03-23T02:03:24;3.65;;;2.05;;
39848;SDS011;25518;47.878;15.914;2024-03-23T02:06:15;3.88;;;2.05;;
39848;SDS011;25518;47.878;15.914;2024-03-23T02:09:08;4.40;;;2.05;;
39848;SDS011;25518;47.878;15.914;2024-03-23T02:12:01;3.20;;;2.10;;
39848;SDS011;25518;47.878;15.914;2024-03-23T02:14:53;2.53;;;1.33;;
39848;SDS011;25518;47.878;15.914;2024-03-23T02:17:44;2.08;;;1.25;;
39848;SDS011;25518;47.878;15.914;2024-03-23T02:20:36;2.88;;;1.20;;
39848;SDS011;25518;47.878;15.914;2024-03-23T02:23:28;2.03;;;1.38;;
39848;SDS011;25518;47.878;15.914;2024-03-23T02:26:20;2.20;;;1.30;;
39848;SDS011;25518;47.878;15.914;2024-03-23T02:29:11;5.65;;;1.30;;
39848;SDS011;25518;47.878;15.914;2024-03-23T02:32:03;1.77;;;1.00;;
39848;SDS011;25518;47.878;15.914;2024-03-23T02:34:55;2.25;;;1.25;;
39848;SDS011;25518;47.878;15.914;2024-03-23T02:37:46;2.28;;;1.10;;
39848;SDS011;25518;47.878;15.914;2024-03-23T02:40:39;6.45;;;2.85;;
39848;SDS011;25518;47.878;15.914;2024-03-23T02:43:31;7.72;;;3.40;;
39848;SDS011;25518;47.878;15.914;2024-03-23T02:46:23;8.73;;;3.67;;
39848;SDS011;25518;47.878;15.914;2024-03-23T02:49:15;3.22;;;1.40;;
39848;SDS011;25518;47.878;15.914;2024-03-23T02:52:06;2.00;;;1.27;;
39848;SDS011;25518;47.878;15.914;2024-03-23T02:54:58;3.30;;;1.15;;
39848;SDS011;25518;47.878;15.914;2024-03-23T02:57:50;1.88;;;1.00;;
39848;SDS011;25518;47.878;15.914;2024-03-23T03:00:41;2.22;;;1.10;;
39848;SDS011;25518;47.878;15.914;2024-03-23T03:03:33;1.70;;;1.00;;
39848;SDS011;25518;47.878;15.914;2024-03-23T03:06:25;1.92;;;0.90;;
39848;SDS011;25518;47.878;15.914;2024-03-23T03:09:17;2.53;;;1.08;;
39848;SDS011;25518;47.878;15.914;2024-03-23T03:12:09;2.37;;;1.20;;
39848;SDS011;25518;47.878;15.914;2024-03-23T03:15:00;2.80;;;1.50;;
39848;SDS011;25518;47.878;15.914;2024-03-23T03:17:52;1.95;;;1.05;;
39848;SDS011;25518;47.878;15.914;2024-03-23T03:20:45;2.50;;;1.00;;
39848;SDS011;25518;47.878;15.914;2024-03-23T03:23:37;2.10;;;1.20;;
39848;SDS011;25518;47.878;15.914;2024-03-23T03:26:29;1.40;;;0.90;;
39848;SDS011;25518;47.878;15.914;2024-03-23T03:29:21;1.63;;;1.05;;
39848;SDS011;25518;47.878;15.914;2024-03-23T03:32:12;2.65;;;1.40;;
39848;SDS011;25518;47.878;15.914;2024-03-23T03:35:04;2.25;;;1.20;;
39848;SDS011;25518;47.878;15.914;2024-03-23T03:37:56;1.75;;;0.95;;
39848;SDS011;25518;47.878;15.914;2024-03-23T03:40:48;1.83;;;0.90;;
39848;SDS011;25518;47.878;15.914;2024-03-23T03:43:39;2.33;;;1.10;;
39848;SDS011;25518;47.878;15.914;2024-03-23T03:46:31;3.88;;;1.23;;
39848;SDS011;25518;47.878;15.914;2024-03-23T03:49:23;3.60;;;1.52;;
39848;SDS011;25518;47.878;15.914;2024-03-23T03:52:14;3.35;;;1.90;;
39848;SDS011;25518;47.878;15.914;2024-03-23T03:55:12;4.50;;;1.85;;
39848;SDS011;25518;47.878;15.914;2024-03-23T03:58:04;6.25;;;2.17;;
39848;SDS011;25518;47.878;15.914;2024-03-23T04:00:55;5.00;;;2.03;;
39848;SDS011;25518;47.878;15.914;2024-03-23T04:03:47;3.35;;;2.00;;
39848;SDS011;25518;47.878;15.914;2024-03-23T04:06:39;3.17;;;1.98;;
39848;SDS011;25518;47.878;15.914;2024-03-23T04:09:30;3.43;;;1.90;;
39848;SDS011;25518;47.878;15.914;2024-03-23T04:12:23;3.70;;;2.10;;
39848;SDS011;25518;47.878;15.914;2024-03-23T04:15:15;3.88;;;2.05;;
39848;SDS011;25518;47.878;15.914;2024-03-23T04:18:06;3.15;;;1.63;;
39848;SDS011;25518;47.878;15.914;2024-03-23T04:20:58;2.38;;;1.13;;
39848;SDS011;25518;47.878;15.914;2024-03-23T04:23:50;1.88;;;0.98;;
39848;SDS011;25518;47.878;15.914;2024-03-23T04:26:42;3.80;;;1.10;;
39848;SDS011;25518;47.878;15.914;2024-03-23T04:29:34;2.40;;;1.00;;
39848;SDS011;25518;47.878;15.914;2024-03-23T04:32:26;1.42;;;0.82;;
39848;SDS011;25518;47.878;15.914;2024-03-23T04:35:17;3.20;;;1.15;;
39848;SDS011;25518;47.878;15.914;2024-03-23T04:38:10;2.38;;;1.20;;
39848;SDS011;25518;47.878;15.914;2024-03-23T04:41:02;1.85;;;0.80;;
39848;SDS011;25518;47.878;15.914;2024-03-23T04:43:54;1.87;;;0.97;;
39848;SDS011;25518;47.878;15.914;2024-03-23T04:46:45;1.50;;;0.82;;
39848;SDS011;25518;47.878;15.914;2024-03-23T04:49:37;2.72;;;1.58;;
39848;SDS011;25518;47.878;15.914;2024-03-23T04:52:29;3.03;;;1.50;;
39848;SDS011;25518;47.878;15.914;2024-03-23T04:55:21;3.35;;;1.50;;
39848;SDS011;25518;47.878;15.914;2024-03-23T04:58:13;3.30;;;2.00;;
39848;SDS011;25518;47.878;15.914;2024-03-23T05:01:05;4.40;;;2.10;;
39848;SDS011;25518;47.878;15.914;2024-03-23T05:03:57;3.97;;;2.10;;
39848;SDS011;25518;47.878;15.914;2024-03-23T05:06:49;3.80;;;2.30;;
39848;SDS011;25518;47.878;15.914;2024-03-23T05:09:40;3.75;;;2.38;;
39848;SDS011;25518;47.878;15.914;2024-03-23T05:12:32;4.93;;;2.00;;
39848;SDS011;25518;47.878;15.914;2024-03-23T05:15:24;3.43;;;2.00;;
39848;SDS011;25518;47.878;15.914;2024-03-23T05:18:16;4.07;;;2.20;;
39848;SDS011;25518;47.878;15.914;2024-03-23T05:21:07;3.58;;;1.90;;
39848;SDS011;25518;47.878;15.914;2024-03-23T05:23:59;3.85;;;1.83;;
39848;SDS011;25518;47.878;15.914;2024-03-23T05:26:50;2.83;;;1.48;;
39848;SDS011;25518;47.878;15.914;2024-03-23T05:29:42;2.70;;;1.60;;
39848;SDS011;25518;47.878;15.914;2024-03-23T05:32:34;2.00;;;1.00;;
39848;SDS011;25518;47.878;15.914;2024-03-23T05:35:26;2.20;;;1.15;;
39848;SDS011;25518;47.878;15.914;2024-03-23T05:38:17;2.15;;;1.05;;
39848;SDS011;25518;47.878;15.914;2024-03-23T05:41:10;2.60;;;1.20;;
39848;SDS011;25518;47.878;15.914;2024-03-23T05:44:02;1.73;;;1.00;;
39848;SDS011;25518;47.878;15.914;2024-03-23T05:46:54;2.00;;;1.00;;
39848;SDS011;25518;47.878;15.914;2024-03-23T05:49:46;2.67;;;0.93;;
39848;SDS011;25518;47.878;15.914;2024-03-23T05:52:38;3.15;;;1.00;;
39848;SDS011;25518;47.878;15.914;2024-03-23T05:55:29;2.35;;;1.17;;
39848;SDS011;25518;47.878;15.914;2024-03-23T05:58:21;2.75;;;1.02;;
39848;SDS011;25518;47.878;15.914;2024-03-23T06:01:13;2.60;;;1.15;;
39848;SDS011;25518;47.878;15.914;2024-03-23T06:04:04;2.55;;;1.10;;
39848;SDS011;25518;47.878;15.914;2024-03-23T06:06:57;1.17;;;0.70;;
39848;SDS011;25518;47.878;15.914;2024-03-23T06:09:49;2.45;;;1.38;;
39848;SDS011;25518;47.878;15.914;2024-03-23T06:12:41;2.87;;;1.30;;
39848;SDS011;25518;47.878;15.914;2024-03-23T06:15:33;3.50;;;1.33;;
39848;SDS011;25518;47.878;15.914;2024-03-23T06:18:28;2.42;;;1.10;;
39848;SDS011;25518;47.878;15.914;2024-03-23T06:21:20;2.67;;;1.20;;
39848;SDS011;25518;47.878;15.914;2024-03-23T06:24:14;1.90;;;0.80;;
39848;SDS011;25518;47.878;15.914;2024-03-23T06:27:05;4.75;;;1.17;;
39848;SDS011;25518;47.878;15.914;2024-03-23T06:29:57;2.53;;;1.20;;
39848;SDS011;25518;47.878;15.914;2024-03-23T06:32:49;2.03;;;0.90;;
39848;SDS011;25518;47.878;15.914;2024-03-23T06:35:41;3.00;;;0.97;;
39848;SDS011;25518;47.878;15.914;2024-03-23T06:38:32;2.17;;;0.93;;
39848;SDS011;25518;47.878;15.914;2024-03-23T06:41:25;2.33;;;1.08;;
39848;SDS011;25518;47.878;15.914;2024-03-23T06:44:17;2.30;;;1.00;;
39848;SDS011;25518;47.878;15.914;2024-03-23T06:47:09;2.58;;;1.23;;
39848;SDS011;25518;47.878;15.914;2024-03-23T06:50:01;2.90;;;1.20;;
39848;SDS011;25518;47.878;15.914;2024-03-23T06:52:53;5.30;;;3.13;;
39848;SDS011;25518;47.878;15.914;2024-03-23T06:55:49;6.93;;;4.65;;
39848;SDS011;25518;47.878;15.914;2024-03-23T06:58:41;7.05;;;3.63;;
39848;SDS011;25518;47.878;15.914;2024-03-23T07:01:33;5.10;;;3.35;;
39848;SDS011;25518;47.878;15.914;2024-03-23T07:04:25;6.22;;;3.33;;
39848;SDS011;25518;47.878;15.914;2024-03-23T07:07:17;5.03;;;2.95;;
39848;SDS011;25518;47.878;15.914;2024-03-23T07:10:09;5.63;;;2.83;;
39848;SDS011;25518;47.878;15.914;2024-03-23T07:13:00;5.43;;;2.30;;
39848;SDS011;25518;47.878;15.914;2024-03-23T07:15:52;4.25;;;2.40;;
39848;SDS011;25518;47.878;15.914;2024-03-23T07:18:45;5.07;;;2.60;;
39848;SDS011;25518;47.878;15.914;2024-03-23T07:21:37;5.05;;;2.38;;
39848;SDS011;25518;47.878;15.914;2024-03-23T07:24:29;5.25;;;2.47;;
39848;SDS011;25518;47.878;15.914;2024-03-23T07:27:21;4.90;;;2.40;;
39848;SDS011;25518;47.878;15.914;2024-03-23T07:30:14;4.95;;;2.42;;
39848;SDS011;25518;47.878;15.914;2024-03-23T07:33:06;3.53;;;2.15;;
39848;SDS011;25518;47.878;15.914;2024-03-23T07:35:57;3.35;;;2.08;;
39848;SDS011;25518;47.878;15.914;2024-03-23T07:38:50;3.93;;;1.83;;
39848;SDS011;25518;47.878;15.914;2024-03-23T07:41:44;3.78;;;1.92;;
39848;SDS011;25518;47.878;15.914;2024-03-23T07:44:35;3.80;;;2.03;;
39848;SDS011;25518;47.878;15.914;2024-03-23T07:47:28;3.30;;;1.92;;
39848;SDS011;25518;47.878;15.914;2024-03-23T07:50:19;5.05;;;2.70;;
39848;SDS011;25518;47.878;15.914;2024-03-23T07:53:11;3.38;;;1.80;;
39848;SDS011;25518;47.878;15.914;2024-03-23T07:58:56;2.15;;;0.93;;
39848;SDS011;25518;47.878;15.914;2024-03-23T08:01:47;2.63;;;0.90;;
39848;SDS011;25518;47.878;15.914;2024-03-23T08:04:39;1.88;;;0.65;;
39848;SDS011;25518;47.878;15.914;2024-03-23T08:07:31;1.50;;;0.90;;
39848;SDS011;25518;47.878;15.914;2024-03-23T08:10:22;1.70;;;0.90;;
39848;SDS011;25518;47.878;15.914;2024-03-23T08:13:14;2.53;;;1.40;;
39848;SDS011;25518;47.878;15.914;2024-03-23T08:16:06;2.07;;;1.20;;
39848;SDS011;25518;47.878;15.914;2024-03-23T08:18:59;2.13;;;1.00;;
39848;SDS011;25518;47.878;15.914;2024-03-23T08:21:50;2.97;;;0.90;;
39848;SDS011;25518;47.878;15.914;2024-03-23T08:24:43;1.60;;;0.75;;
39848;SDS011;25518;47.878;15.914;2024-03-23T08:27:35;1.43;;;0.70;;
39848;SDS011;25518;47.878;15.914;2024-03-23T08:30:27;1.27;;;0.60;;
39848;SDS011;25518;47.878;15.914;2024-03-23T08:33:20;1.35;;;0.70;;
39848;SDS011;25518;47.878;15.914;2024-03-23T08:36:11;1.48;;;0.60;;
39848;SDS011;25518;47.878;15.914;2024-03-23T08:39:04;1.75;;;0.60;;
39848;SDS011;25518;47.878;15.914;2024-03-23T08:41:56;3.13;;;0.90;;
39848;SDS011;25518;47.878;15.914;2024-03-23T08:44:47;1.23;;;0.70;;
39848;SDS011;25518;47.878;15.914;2024-03-23T08:47:40;2.88;;;0.88;;
39848;SDS011;25518;47.878;15.914;2024-03-23T08:50:32;1.70;;;0.90;;
39848;SDS011;25518;47.878;15.914;2024-03-23T08:53:23;2.40;;;0.90;;
39848;SDS011;25518;47.878;15.914;2024-03-23T08:56:15;1.67;;;0.75;;
39848;SDS011;25518;47.878;15.914;2024-03-23T08:59:06;1.15;;;0.63;;
39848;SDS011;25518;47.878;15.914;2024-03-23T09:01:58;1.25;;;0.60;;
39848;SDS011;25518;47.878;15.914;2024-03-23T09:04:50;1.70;;;0.80;;
39848;SDS011;25518;47.878;15.914;2024-03-23T09:07:41;2.22;;;0.60;;
39848;SDS011;25518;47.878;15.914;2024-03-23T09:10:40;1.10;;;0.68;;
39848;SDS011;25518;47.878;15.914;2024-03-23T09:13:33;2.13;;;0.65;;
39848;SDS011;25518;47.878;15.914;2024-03-23T09:16:25;2.30;;;1.23;;
39848;SDS011;25518;47.878;15.914;2024-03-23T09:19:17;1.55;;;0.70;;
39848;SDS011;25518;47.878;15.914;2024-03-23T09:22:08;1.10;;;0.60;;
39848;SDS011;25518;47.878;15.914;2024-03-23T09:25:00;0.85;;;0.50;;
39848;SDS011;25518;47.878;15.914;2024-03-23T09:27:52;1.00;;;0.43;;
39848;SDS011;25518;47.878;15.914;2024-03-23T09:30:43;1.67;;;0.60;;
39848;SDS011;25518;47.878;15.914;2024-03-23T09:33:36;1.80;;;0.88;;
39848;SDS011;25518;47.878;15.914;2024-03-23T09:36:28;6.13;;;0.63;;
39848;SDS011;25518;47.878;15.914;2024-03-23T09:39:20;1.17;;;0.60;;
39848;SDS011;25518;47.878;15.914;2024-03-23T09:42:11;1.05;;;0.55;;
39848;SDS011;25518;47.878;15.914;2024-03-23T09:45:05;1.20;;;0.60;;
39848;SDS011;25518;47.878;15.914;2024-03-23T09:47:57;1.23;;;0.60;;
39848;SDS011;25518;47.878;15.914;2024-03-23T09:50:49;1.65;;;0.75;;
39848;SDS011;25518;47.878;15.914;2024-03-23T09:53:40;0.93;;;0.57;;
39848;SDS011;25518;47.878;15.914;2024-03-23T09:56:32;0.85;;;0.40;;
39848;SDS011;25518;47.878;15.914;2024-03-23T09:59:24;1.10;;;0.47;;
39848;SDS011;25518;47.878;15.914;2024-03-23T10:02:17;1.50;;;0.68;;
39848;SDS011;25518;47.878;15.914;2024-03-23T10:05:27;1.02;;;0.55;;
39848;SDS011;25518;47.878;15.914;2024-03-23T10:08:18;1.52;;;0.65;;
39848;SDS011;25518;47.878;15.914;2024-03-23T10:11:14;1.15;;;0.50;;
39848;SDS011;25518;47.878;15.914;2024-03-23T10:14:06;2.40;;;0.60;;
39848;SDS011;25518;47.878;15.914;2024-03-23T10:17:08;2.35;;;0.43;;
39848;SDS011;25518;47.878;15.914;2024-03-23T10:20:04;2.30;;;0.63;;
39848;SDS011;25518;47.878;15.914;2024-03-23T10:23:02;1.17;;;0.53;;
39848;SDS011;25518;47.878;15.914;2024-03-23T10:25:54;0.73;;;0.50;;
39848;SDS011;25518;47.878;15.914;2024-03-23T10:28:53;0.73;;;0.47;;
39848;SDS011;25518;47.878;15.914;2024-03-23T10:31:45;1.70;;;0.90;;
39848;SDS011;25518;47.878;15.914;2024-03-23T10:34:38;1.52;;;0.65;;
39848;SDS011;25518;47.878;15.914;2024-03-23T10:37:30;1.75;;;0.80;;
39848;SDS011;25518;47.878;15.914;2024-03-23T10:40:22;2.00;;;1.70;;
39848;SDS011;25518;47.878;15.914;2024-03-23T10:43:15;1.42;;;0.40;;
39848;SDS011;25518;47.878;15.914;2024-03-23T10:46:08;1.00;;;0.50;;
39848;SDS011;25518;47.878;15.914;2024-03-23T10:48:59;0.50;;;0.35;;
39848;SDS011;25518;47.878;15.914;2024-03-23T10:51:51;0.70;;;0.40;;
39848;SDS011;25518;47.878;15.914;2024-03-23T10:54:43;0.68;;;0.38;;
39848;SDS011;25518;47.878;15.914;2024-03-23T10:57:40;1.25;;;0.50;;
39848;SDS011;25518;47.878;15.914;2024-03-23T11:00:32;1.30;;;0.40;;
39848;SDS011;25518;47.878;15.914;2024-03-23T11:06:39;0.80;;;0.50;;
39848;SDS011;25518;47.878;15.914;2024-03-23T11:09:40;2.13;;;0.55;;
39848;SDS011;25518;47.878;15.914;2024-03-23T11:12:35;2.13;;;0.60;;
39848;SDS011;25518;47.878;15.914;2024-03-23T11:15:27;2.70;;;0.52;;
39848;SDS011;25518;47.878;15.914;2024-03-23T11:18:20;2.00;;;0.50;;
39848;SDS011;25518;47.878;15.914;2024-03-23T11:21:51;0.98;;;0.50;;
39848;SDS011;25518;47.878;15.914;2024-03-23T11:24:23;0.50;;;0.32;;
39848;SDS011;25518;47.878;15.914;2024-03-23T11:27:15;1.52;;;0.68;;
39848;SDS011;25518;47.878;15.914;2024-03-23T11:30:37;0.82;;;0.50;;
39848;SDS011;25518;47.878;15.914;2024-03-23T11:33:19;1.23;;;0.63;;
39848;SDS011;25518;47.878;15.914;2024-03-23T11:36:16;1.98;;;0.60;;
39848;SDS011;25518;47.878;15.914;2024-03-23T11:39:11;1.45;;;0.57;;
39848;SDS011;25518;47.878;15.914;2024-03-23T11:42:04;1.55;;;0.50;;
39848;SDS011;25518;47.878;15.914;2024-03-23T11:44:56;3.00;;;0.60;;
39848;SDS011;25518;47.878;15.914;2024-03-23T11:47:47;1.17;;;0.63;;
39848;SDS011;25518;47.878;15.914;2024-03-23T11:50:40;2.00;;;0.70;;
39848;SDS011;25518;47.878;15.914;2024-03-23T11:53:32;1.17;;;0.60;;
39848;SDS011;25518;47.878;15.914;2024-03-23T11:56:25;2.97;;;0.70;;
39848;SDS011;25518;47.878;15.914;2024-03-23T11:59:29;0.83;;;0.40;;
39848;SDS011;25518;47.878;15.914;2024-03-23T12:02:21;1.02;;;0.60;;
39848;SDS011;25518;47.878;15.914;2024-03-23T12:05:13;1.10;;;0.50;;
39848;SDS011;25518;47.878;15.914;2024-03-23T12:08:35;1.63;;;0.57;;
39848;SDS011;25518;47.878;15.914;2024-03-23T12:11:17;2.30;;;0.60;;
39848;SDS011;25518;47.878;15.914;2024-03-23T12:14:09;1.13;;;0.52;;
39848;SDS011;25518;47.878;15.914;2024-03-23T12:17:16;0.90;;;0.60;;
39848;SDS011;25518;47.878;15.914;2024-03-23T12:20:09;0.98;;;0.52;;
39848;SDS011;25518;47.878;15.914;2024-03-23T12:26:00;2.05;;;0.88;;
39848;SDS011;25518;47.878;15.914;2024-03-23T12:28:51;2.50;;;0.80;;
39848;SDS011;25518;47.878;15.914;2024-03-23T12:31:43;1.67;;;0.80;;
39848;SDS011;25518;47.878;15.914;2024-03-23T12:34:35;3.00;;;1.05;;
39848;SDS011;25518;47.878;15.914;2024-03-23T12:37:27;5.55;;;1.13;;
39848;SDS011;25518;47.878;15.914;2024-03-23T12:40:18;2.63;;;1.00;;
39848;SDS011;25518;47.878;15.914;2024-03-23T12:43:10;2.10;;;0.82;;
39848;SDS011;25518;47.878;15.914;2024-03-23T12:46:02;2.67;;;1.00;;
39848;SDS011;25518;47.878;15.914;2024-03-23T12:48:54;1.65;;;0.70;;
39848;SDS011;25518;47.878;15.914;2024-03-23T12:51:52;1.38;;;0.68;;
39848;SDS011;25518;47.878;15.914;2024-03-23T12:54:45;1.08;;;0.60;;
39848;SDS011;25518;47.878;15.914;2024-03-23T12:57:37;1.02;;;0.43;;
39848;SDS011;25518;47.878;15.914;2024-03-23T13:00:28;1.05;;;0.52;;
39848;SDS011;25518;47.878;15.914;2024-03-23T13:03:20;1.50;;;0.68;;
39848;SDS011;25518;47.878;15.914;2024-03-23T13:06:12;0.87;;;0.47;;
39848;SDS011;25518;47.878;15.914;2024-03-23T13:09:04;1.05;;;0.50;;
39848;SDS011;25518;47.878;15.914;2024-03-23T13:11:55;0.93;;;0.38;;
39848;SDS011;25518;47.878;15.914;2024-03-23T13:14:47;3.97;;;1.77;;
39848;SDS011;25518;47.878;15.914;2024-03-23T13:17:39;12.33;;;5.03;;
39848;SDS011;25518;47.878;15.914;2024-03-23T13:20:31;15.52;;;5.05;;
39848;SDS011;25518;47.878;15.914;2024-03-23T13:23:22;1.88;;;1.00;;
39848;SDS011;25518;47.878;15.914;2024-03-23T13:26:14;1.90;;;0.50;;
39848;SDS011;25518;47.878;15.914;2024-03-23T13:29:06;1.45;;;0.57;;
39848;SDS011;25518;47.878;15.914;2024-03-23T13:31:58;0.45;;;0.40;;
39848;SDS011;25518;47.878;15.914;2024-03-23T13:34:49;0.50;;;0.40;;
39848;SDS011;25518;47.878;15.914;2024-03-23T13:37:41;0.40;;;0.17;;
39848;SDS011;25518;47.878;15.914;2024-03-23T13:40:33;1.10;;;0.40;;
39848;SDS011;25518;47.878;15.914;2024-03-23T13:43:27;0.20;;;0.20;;
39848;SDS011;25518;47.878;15.914;2024-03-23T13:46:19;1.00;;;0.30;;
39848;SDS011;25518;47.878;15.914;2024-03-23T13:49:26;0.73;;;0.40;;
39848;SDS011;25518;47.878;15.914;2024-03-23T13:52:18;0.37;;;0.30;;
39848;SDS011;25518;47.878;15.914;2024-03-23T13:55:13;1.00;;;0.55;;
39848;SDS011;25518;47.878;15.914;2024-03-23T13:58:06;0.70;;;0.38;;
39848;SDS011;25518;47.878;15.914;2024-03-23T14:00:57;0.50;;;0.30;;
39848;SDS011;25518;47.878;15.914;2024-03-23T14:03:49;0.47;;;0.20;;
39848;SDS011;25518;47.878;15.914;2024-03-23T14:06:41;0.50;;;0.30;;
39848;SDS011;25518;47.878;15.914;2024-03-23T14:09:33;0.32;;;0.30;;
39848;SDS011;25518;47.878;15.914;2024-03-23T14:12:25;0.82;;;0.20;;
39848;SDS011;25518;47.878;15.914;2024-03-23T14:15:17;0.70;;;0.50;;
39848;SDS011;25518;47.878;15.914;2024-03-23T14:18:09;0.47;;;0.40;;
39848;SDS011;25518;47.878;15.914;2024-03-23T14:21:01;0.40;;;0.30;;
39848;SDS011;25518;47.878;15.914;2024-03-23T14:23:53;1.00;;;0.40;;
39848;SDS011;25518;47.878;15.914;2024-03-23T14:26:46;1.17;;;0.40;;
39848;SDS011;25518;47.878;15.914;2024-03-23T14:29:37;0.55;;;0.30;;
39848;SDS011;25518;47.878;15.914;2024-03-23T14:32:29;0.95;;;0.30;;
39848;SDS011;25518;47.878;15.914;2024-03-23T14:35:24;2.35;;;0.40;;
39848;SDS011;25518;47.878;15.914;2024-03-23T14:38:19;0.43;;;0.30;;
39848;SDS011;25518;47.878;15.914;2024-03-23T14:41:11;0.88;;;0.35;;
39848;SDS011;25518;47.878;15.914;2024-03-23T14:44:03;0.40;;;0.30;;
39848;SDS011;25518;47.878;15.914;2024-03-23T14:46:54;0.30;;;0.28;;
39848;SDS011;25518;47.878;15.914;2024-03-23T14:49:46;5.82;;;2.40;;
39848;SDS011;25518;47.878;15.914;2024-03-23T14:52:44;0.65;;;0.47;;
39848;SDS011;25518;47.878;15.914;2024-03-23T14:55:35;3.67;;;1.65;;
39848;SDS011;25518;47.878;15.914;2024-03-23T14:58:27;0.40;;;0.40;;
39848;SDS011;25518;47.878;15.914;2024-03-23T15:01:20;0.50;;;0.40;;
39848;SDS011;25518;47.878;15.914;2024-03-23T15:04:11;0.50;;;0.40;;
39848;SDS011;25518;47.878;15.914;2024-03-23T15:07:03;0.20;;;0.10;;
39848;SDS011;25518;47.878;15.914;2024-03-23T15:09:55;0.20;;;0.10;;
39848;SDS011;25518;47.878;15.914;2024-03-23T15:12:47;0.43;;;0.30;;
39848;SDS011;25518;47.878;15.914;2024-03-23T15:15:39;0.30;;;0.10;;
39848;SDS011;25518;47.878;15.914;2024-03-23T15:18:33;0.47;;;0.10;;
39848;SDS011;25518;47.878;15.914;2024-03-23T15:21:26;0.17;;;0.17;;
39848;SDS011;25518;47.878;15.914;2024-03-23T15:24:18;0.85;;;0.32;;
39848;SDS011;25518;47.878;15.914;2024-03-23T15:27:09;3.13;;;1.58;;
39848;SDS011;25518;47.878;15.914;2024-03-23T15:30:01;0.85;;;0.25;;
39848;SDS011;25518;47.878;15.914;2024-03-23T15:32:53;0.40;;;0.20;;
39848;SDS011;25518;47.878;15.914;2024-03-23T15:35:44;0.20;;;0.20;;
39848;SDS011;25518;47.878;15.914;2024-03-23T15:38:36;0.60;;;0.20;;
39848;SDS011;25518;47.878;15.914;2024-03-23T15:41:29;0.30;;;0.22;;
39848;SDS011;25518;47.878;15.914;2024-03-23T15:44:21;0.50;;;0.20;;
39848;SDS011;25518;47.878;15.914;2024-03-23T15:47:13;0.80;;;0.30;;
39848;SDS011;25518;47.878;15.914;2024-03-23T15:50:05;0.90;;;0.40;;
39848;SDS011;25518;47.878;15.914;2024-03-23T15:52:59;0.87;;;0.37;;
39848;SDS011;25518;47.878;15.914;2024-03-23T15:55:54;0.63;;;0.22;;
39848;SDS011;25518;47.878;15.914;2024-03-23T15:58:46;0.60;;;0.20;;
39848;SDS011;25518;47.878;15.914;2024-03-23T16:01:38;1.40;;;0.47;;
39848;SDS011;25518;47.878;15.914;2024-03-23T16:04:30;0.70;;;0.50;;
39848;SDS011;25518;47.878;15.914;2024-03-23T16:07:21;0.50;;;0.30;;
39848;SDS011;25518;47.878;15.914;2024-03-23T16:10:13;1.92;;;0.20;;
39848;SDS011;25518;47.878;15.914;2024-03-23T16:13:05;0.40;;;0.25;;
39848;SDS011;25518;47.878;15.914;2024-03-23T16:18:48;1.92;;;0.30;;
39848;SDS011;25518;47.878;15.914;2024-03-23T16:21:40;0.73;;;0.32;;
39848;SDS011;25518;47.878;15.914;2024-03-23T16:24:32;0.75;;;0.30;;
39848;SDS011;25518;47.878;15.914;2024-03-23T16:27:24;2.00;;;0.50;;
39848;SDS011;25518;47.878;15.914;2024-03-23T16:30:15;0.57;;;0.30;;
39848;SDS011;25518;47.878;15.914;2024-03-23T16:33:07;0.60;;;0.30;;
39848;SDS011;25518;47.878;15.914;2024-03-23T16:38:52;0.30;;;0.30;;
39848;SDS011;25518;47.878;15.914;2024-03-23T16:41:45;0.50;;;0.30;;
39848;SDS011;25518;47.878;15.914;2024-03-23T16:44:36;0.77;;;0.38;;
39848;SDS011;25518;47.878;15.914;2024-03-23T16:47:29;0.40;;;0.20;;
39848;SDS011;25518;47.878;15.914;2024-03-23T16:50:21;0.65;;;0.38;;
39848;SDS011;25518;47.878;15.914;2024-03-23T16:53:13;1.05;;;0.47;;
39848;SDS011;25518;47.878;15.914;2024-03-23T16:56:05;0.35;;;0.20;;
39848;SDS011;25518;47.878;15.914;2024-03-23T16:58:57;0.60;;;0.30;;
39848;SDS011;25518;47.878;15.914;2024-03-23T17:01:49;0.55;;;0.40;;
39848;SDS011;25518;47.878;15.914;2024-03-23T17:04:41;0.28;;;0.22;;
39848;SDS011;25518;47.878;15.914;2024-03-23T17:07:33;0.28;;;0.13;;
39848;SDS011;25518;47.878;15.914;2024-03-23T17:10:24;0.30;;;0.25;;
39848;SDS011;25518;47.878;15.914;2024-03-23T17:13:16;1.10;;;0.57;;
39848;SDS011;25518;47.878;15.914;2024-03-23T17:16:07;1.05;;;0.30;;
39848;SDS011;25518;47.878;15.914;2024-03-23T17:19:01;0.98;;;0.30;;
39848;SDS011;25518;47.878;15.914;2024-03-23T17:21:53;1.20;;;0.40;;
39848;SDS011;25518;47.878;15.914;2024-03-23T17:24:44;0.45;;;0.30;;
39848;SDS011;25518;47.878;15.914;2024-03-23T17:27:36;1.15;;;0.60;;
39848;SDS011;25518;47.878;15.914;2024-03-23T17:30:28;1.67;;;0.73;;
39848;SDS011;25518;47.878;15.914;2024-03-23T17:33:20;3.10;;;0.93;;
39848;SDS011;25518;47.878;15.914;2024-03-23T17:36:14;3.08;;;1.20;;
39848;SDS011;25518;47.878;15.914;2024-03-23T17:39:06;3.50;;;0.88;;
39848;SDS011;25518;47.878;15.914;2024-03-23T17:42:00;3.53;;;1.45;;
39848;SDS011;25518;47.878;15.914;2024-03-23T17:44:52;0.98;;;0.40;;
39848;SDS011;25518;47.878;15.914;2024-03-23T17:47:43;0.73;;;0.40;;
39848;SDS011;25518;47.878;15.914;2024-03-23T17:50:35;1.45;;;0.50;;
39848;SDS011;25518;47.878;15.914;2024-03-23T17:53:27;2.38;;;0.88;;
39848;SDS011;25518;47.878;15.914;2024-03-23T17:56:18;0.30;;;0.30;;
39848;SDS011;25518;47.878;15.914;2024-03-23T17:59:10;0.88;;;0.40;;
39848;SDS011;25518;47.878;15.914;2024-03-23T18:02:02;1.45;;;0.57;;
39848;SDS011;25518;47.878;15.914;2024-03-23T18:04:54;0.65;;;0.40;;
39848;SDS011;25518;47.878;15.914;2024-03-23T18:07:46;1.52;;;0.40;;
39848;SDS011;25518;47.878;15.914;2024-03-23T18:10:38;4.10;;;1.55;;